Time;durP1;ratioP1;P1;durP2;ratioP2;P2;SDS_P1;SDS_P2;PMS_P1;PMS_P2;Temp;Humidity;BMP_temperature;BMP_pressure;BME280_temperature;BME280_humidity;BME280_pressure;Samples;Min_cycle;Max_cycle;Signal;HPM_P1;HPM_P2
2022/01/25 00:32:48;;;;;;;;;;;;;;;5.52;41.07;100909.66;5061408;28;19927;-79
2022/01/25 00:35:14;;;;;;;;;;;;;;;5.67;41.95;100902.28;5062000;28;19921;-80
2022/01/25 00:37:39;;;;;;;;;;;;;;;5.60;41.34;100893.66;5056246;28;20370;-79
2022/01/25 00:40:05;;;;;;;;;;;;;;;5.77;40.43;100888.88;5062352;28;19920;-79
2022/01/25 00:42:30;;;;;;;;;;;;;;;5.76;40.72;100882.00;5063929;28;20015;-79
2022/01/25 00:44:56;;;;;;;;;;;;;;;5.77;40.63;100868.41;5045975;28;19916;-80
2022/01/25 00:47:21;;;;;;;;;;;;;;;5.41;42.14;100856.69;5062817;28;19924;-80
2022/01/25 00:49:52;;;;;;;;;;;;;;;4.94;41.46;100866.81;5053033;28;19989;-80
2022/01/25 00:52:32;;;;;;;;;;;;;;;5.02;41.41;100862.72;5060268;28;19924;-79
2022/01/25 00:54:58;;;;;;;;;;;;;;;4.71;43.52;100852.69;5048079;28;19962;-80
2022/01/25 00:57:25;;;;;;;;;;;;;;;5.13;45.54;100862.97;5062367;28;19923;-79
2022/01/25 00:59:50;;;;;;;;;;;;;;;4.68;46.57;100863.72;5059264;28;19912;-80
2022/01/25 01:02:16;;;;;;;;;;;;;;;4.95;46.91;100871.09;5061370;28;19921;-79
2022/01/25 01:04:42;;;;;;;;;;;;;;;4.74;46.56;100880.84;5049631;28;19923;-79
2022/01/25 01:07:11;;;;;;;;;;;;;;;5.36;44.98;100895.72;5065115;28;19924;-79
2022/01/25 01:09:39;;;;;;;;;;;;;;;5.56;41.69;100896.13;5050237;28;20293;-79
2022/01/25 01:12:11;;;;;;;;;;;;;;;4.90;40.74;100884.56;5065912;28;19931;-80
2022/01/25 01:14:58;;;;;;;;;;;;;;;5.07;44.00;100878.16;5066078;28;20282;-79
2022/01/25 01:43:59;;;;;;;;;;;;;;;4.46;46.70;100933.78;5022995;28;19917;-79
2022/01/25 01:48:54;;;;;;;;;;;;;;;4.46;43.36;100946.53;5007716;28;19924;-78
2022/01/25 01:51:29;;;;;;;;;;;;;;;4.79;45.02;100949.03;4991154;28;19921;-78
2022/01/25 01:53:55;;;;;;;;;;;;;;;3.82;46.31;100947.47;5022602;28;19951;-78
2022/01/25 01:56:21;;;;;;;;;;;;;;;4.87;45.98;100967.06;5048930;28;19924;-78
2022/01/25 01:58:46;;;;;;;;;;;;;;;5.02;43.63;100980.19;5063753;28;20033;-79
2022/01/25 02:01:13;;;;;;;;;;;;;;;4.45;44.73;100967.78;5064105;28;19918;-79
2022/01/25 02:03:39;;;;;;;;;;;;;;;4.18;47.16;100960.31;5063180;28;19924;-79
2022/01/25 02:06:04;;;;;;;;;;;;;;;4.15;47.61;100960.22;5064937;28;19916;-79
2022/01/25 02:08:30;;;;;;;;;;;;;;;3.87;48.08;100968.84;5048283;28;20260;-79
2022/01/25 02:10:55;;;;;;;;;;;;;;;4.14;49.98;100986.56;5064405;28;20403;-78
2022/01/25 02:13:21;;;;;;;;;;;;;;;4.14;49.51;100992.50;5066733;28;19916;-79
2022/01/25 02:15:48;;;;;;;;;;;;;;;3.83;49.60;101000.16;5063688;28;19971;-79
2022/01/25 02:23:43;;;;;;;;;;;;;;;4.44;49.25;101037.47;5067307;28;19944;-79
2022/01/25 02:26:09;;;;;;;;;;;;;;;4.13;50.18;101039.25;5064459;28;19927;-79
2022/01/25 02:28:35;;;;;;;;;;;;;;;4.34;48.35;101055.94;5063782;28;19924;-80
2022/01/25 02:31:00;;;;;;;;;;;;;;;4.66;46.14;101063.56;5066285;28;19919;-80
2022/01/25 02:33:26;;;;;;;;;;;;;;;4.19;43.40;101067.44;5045479;28;20588;-79
2022/01/25 02:35:52;;;;;;;;;;;;;;;4.48;47.80;101079.25;5047830;28;19970;-79
2022/01/25 02:38:21;;;;;;;;;;;;;;;4.31;46.96;101081.34;5064591;28;19924;-79
2022/01/25 02:40:47;;;;;;;;;;;;;;;4.69;45.68;101096.81;5033031;28;19921;-80
2022/01/25 02:43:15;;;;;;;;;;;;;;;4.75;41.93;101107.19;5047477;28;20441;-79
2022/01/25 02:45:45;;;;;;;;;;;;;;;5.07;41.32;101092.66;5048074;28;19920;-79
2022/01/25 02:50:54;;;;;;;;;;;;;;;4.80;40.69;101069.88;5063537;28;19974;-78
2022/01/25 02:53:19;;;;;;;;;;;;;;;4.81;39.79;101062.25;5064906;28;19934;-79
2022/01/25 02:55:45;;;;;;;;;;;;;;;4.74;39.36;101056.94;5064824;28;19916;-78
2022/01/25 02:58:10;;;;;;;;;;;;;;;4.91;41.35;101045.47;5062836;28;19927;-78
2022/01/25 03:00:37;;;;;;;;;;;;;;;4.78;38.69;101038.34;5063945;28;19920;-80
2022/01/25 03:03:02;;;;;;;;;;;;;;;4.71;41.54;101027.09;5065220;28;19920;-80
2022/01/25 03:05:28;;;;;;;;;;;;;;;4.66;41.57;101020.19;5064375;28;20355;-80
2022/01/25 03:07:54;;;;;;;;;;;;;;;4.47;40.00;101009.53;5062369;28;19952;-79
2022/01/25 03:10:20;;;;;;;;;;;;;;;4.46;41.47;101010.31;5062187;28;19924;-79
2022/01/25 03:12:53;;;;;;;;;;;;;;;4.79;39.96;101012.00;5065676;28;19920;-79
2022/01/25 03:17:50;;;;;;;;;;;;;;;5.22;39.53;101001.06;5064232;28;19931;-78
2022/01/25 03:20:22;;;;;;;;;;;;;;;5.05;40.31;100986.19;5046702;28;20010;-79
2022/01/25 03:25:19;;;;;;;;;;;;;;;5.07;39.50;100946.25;5065026;28;19923;-79
2022/01/25 03:27:44;;;;;;;;;;;;;;;5.09;37.63;100932.66;5062768;28;20034;-79
2022/01/25 03:30:10;;;;;;;;;;;;;;;4.76;38.98;100918.31;5063782;28;20870;-79
2022/01/25 03:32:35;;;;;;;;;;;;;;;4.22;39.98;100900.03;5063950;28;19920;-80
2022/01/25 03:35:01;;;;;;;;;;;;;;;4.09;44.13;100892.09;5062631;28;19917;-79
2022/01/25 03:37:26;;;;;;;;;;;;;;;4.52;43.96;100900.78;5062909;28;19921;-79
2022/01/25 03:39:51;;;;;;;;;;;;;;;4.84;41.06;100910.84;5045920;28;19924;-79
2022/01/25 03:42:18;;;;;;;;;;;;;;;4.90;40.21;100899.91;5062449;28;19917;-80
2022/01/25 03:44:44;;;;;;;;;;;;;;;4.17;41.98;100880.41;5062828;28;19939;-79
2022/01/25 03:47:14;;;;;;;;;;;;;;;4.38;44.74;100879.19;5062629;28;19921;-79
2022/01/25 03:49:52;;;;;;;;;;;;;;;5.03;41.37;100889.97;5063224;28;19924;-80
2022/01/25 03:52:26;;;;;;;;;;;;;;;4.75;40.13;100885.13;5063074;28;19916;-79
2022/01/25 03:54:51;;;;;;;;;;;;;;;4.39;43.62;100874.09;5046413;28;20002;-80
2022/01/25 03:57:17;;;;;;;;;;;;;;;4.69;39.93;100874.78;5043567;28;20011;-79
2022/01/25 03:59:43;;;;;;;;;;;;;;;4.75;40.81;100874.91;5043639;28;19969;-79
2022/01/25 04:02:08;;;;;;;;;;;;;;;4.87;39.89;100872.63;5044041;28;20058;-78
2022/01/25 04:04:35;;;;;;;;;;;;;;;4.57;38.72;100868.56;5045268;28;19924;-79
2022/01/25 04:07:08;;;;;;;;;;;;;;;4.92;40.00;100863.34;5063369;28;20468;-79
2022/01/25 04:09:33;;;;;;;;;;;;;;;5.05;38.98;100858.53;5061137;28;19924;-79
2022/01/25 04:12:00;;;;;;;;;;;;;;;5.01;36.27;100850.78;5062098;28;20376;-80
2022/01/25 04:14:25;;;;;;;;;;;;;;;4.70;39.74;100836.53;5061618;28;19917;-79
2022/01/25 04:16:57;;;;;;;;;;;;;;;4.87;38.82;100825.81;5061896;28;19955;-79
2022/01/25 04:24:44;;;;;;;;;;;;;;;5.20;38.88;100817.94;5063382;28;19988;-79
2022/01/25 04:27:09;;;;;;;;;;;;;;;4.93;39.22;100811.47;5063015;28;20906;-79
2022/01/25 04:29:34;;;;;;;;;;;;;;;4.39;39.82;100801.84;5062670;28;19916;-79
2022/01/25 04:32:00;;;;;;;;;;;;;;;4.70;38.36;100799.91;5044093;28;19920;-79
2022/01/25 04:34:40;;;;;;;;;;;;;;;5.12;39.13;100799.06;5062218;28;19913;-80
2022/01/25 04:53:16;;;;;;;;;;;;;;;4.07;43.02;100791.75;5066699;28;19962;-78
2022/01/25 04:55:53;;;;;;;;;;;;;;;3.92;45.16;100786.28;5066296;28;20374;-79
2022/01/25 04:58:33;;;;;;;;;;;;;;;4.23;42.76;100802.31;5064215;28;19927;-78
2022/01/25 05:00:58;;;;;;;;;;;;;;;4.86;40.58;100811.31;5066055;28;19928;-80
2022/01/25 05:03:31;;;;;;;;;;;;;;;5.08;38.99;100818.56;5065438;28;19916;-79
2022/01/25 05:06:10;;;;;;;;;;;;;;;4.72;38.70;100805.91;5051781;28;19924;-78
2022/01/25 05:08:40;;;;;;;;;;;;;;;5.04;38.86;100801.50;5068371;28;19994;-79
2022/01/25 05:11:15;;;;;;;;;;;;;;;5.11;37.48;100803.31;5068856;28;19927;-78
2022/01/25 05:13:53;;;;;;;;;;;;;;;5.07;37.79;100806.66;5066492;28;19950;-78
2022/01/25 05:16:34;;;;;;;;;;;;;;;5.06;38.28;100793.84;5065783;28;20024;-79
2022/01/25 05:24:29;;;;;;;;;;;;;;;4.93;38.99;100778.28;5068411;28;19923;-79
2022/01/25 05:26:54;;;;;;;;;;;;;;;4.98;38.44;100775.81;5066638;28;19927;-79
2022/01/25 05:29:28;;;;;;;;;;;;;;;4.82;38.83;100772.13;5065503;28;19920;-79
2022/01/25 05:31:53;;;;;;;;;;;;;;;4.88;38.36;100764.59;5049769;28;19920;-79
2022/01/25 05:34:19;;;;;;;;;;;;;;;4.95;37.95;100761.31;5063531;28;20404;-79
2022/01/25 05:36:47;;;;;;;;;;;;;;;5.08;38.44;100752.19;5066011;28;19926;-78
2022/01/25 05:39:20;;;;;;;;;;;;;;;4.68;39.31;100755.69;5068370;28;19923;-78
2022/01/25 05:47:30;;;;;;;;;;;;;;;4.76;39.49;100759.22;5066785;28;19920;-79
2022/01/25 05:49:56;;;;;;;;;;;;;;;5.07;39.27;100764.94;5065933;28;19924;-79
2022/01/25 05:52:22;;;;;;;;;;;;;;;4.45;39.60;100762.81;5045072;28;19962;-79
2022/01/25 05:54:48;;;;;;;;;;;;;;;4.73;40.14;100769.38;5064236;28;19916;-79
2022/01/25 05:57:19;;;;;;;;;;;;;;;4.83;39.01;100771.28;5063812;28;19922;-78
2022/01/25 05:59:54;;;;;;;;;;;;;;;4.48;39.11;100781.63;5063598;28;19970;-80
2022/01/25 06:02:21;;;;;;;;;;;;;;;4.26;41.04;100771.78;5064008;28;19920;-78
2022/01/25 06:04:47;;;;;;;;;;;;;;;4.28;38.70;100780.31;5065706;28;20023;-79
2022/01/25 06:07:18;;;;;;;;;;;;;;;4.59;39.89;100785.25;5051305;28;20011;-79
2022/01/25 06:09:44;;;;;;;;;;;;;;;4.24;41.87;100783.63;5068814;28;19912;-79
2022/01/25 06:12:10;;;;;;;;;;;;;;;3.92;41.46;100776.09;5049935;28;19917;-80
2022/01/25 06:14:37;;;;;;;;;;;;;;;4.11;42.26;100785.06;5051584;28;19939;-79
2022/01/25 06:17:02;;;;;;;;;;;;;;;4.48;38.79;100796.94;5067358;28;19932;-79
2022/01/25 06:19:28;;;;;;;;;;;;;;;4.70;39.43;100800.81;5063594;28;19974;-78
2022/01/25 06:21:56;;;;;;;;;;;;;;;4.82;37.93;100797.63;5049327;28;20587;-79
2022/01/25 06:24:25;;;;;;;;;;;;;;;4.77;38.23;100799.25;5067807;28;19913;-79
2022/01/25 06:26:50;;;;;;;;;;;;;;;4.81;37.46;100794.22;5068584;28;19920;-80
2022/01/25 06:29:18;;;;;;;;;;;;;;;4.88;36.69;100794.34;5065682;28;19916;-78
2022/01/25 06:31:43;;;;;;;;;;;;;;;4.09;39.81;100774.81;5068575;28;19916;-79
2022/01/25 06:34:09;;;;;;;;;;;;;;;4.67;37.83;100787.97;5048875;28;19969;-80
2022/01/25 06:36:35;;;;;;;;;;;;;;;4.08;35.89;100783.31;5066922;28;19920;-78
2022/01/25 06:39:03;;;;;;;;;;;;;;;4.40;39.56;100780.59;5065852;28;19935;-78
2022/01/25 06:41:36;;;;;;;;;;;;;;;4.61;37.86;100792.97;5065115;28;19923;-79
2022/01/25 06:44:08;;;;;;;;;;;;;;;4.88;37.01;100794.34;5065950;28;19917;-78
2022/01/25 06:46:33;;;;;;;;;;;;;;;5.06;36.43;100778.53;5065162;28;19935;-78
2022/01/25 06:49:02;;;;;;;;;;;;;;;5.13;36.56;100777.78;5066759;28;19916;-79
2022/01/25 06:51:28;;;;;;;;;;;;;;;5.18;35.96;100773.66;5067007;28;19939;-78
2022/01/25 06:53:54;;;;;;;;;;;;;;;4.64;37.23;100772.59;5065696;28;19978;-79
2022/01/25 06:56:19;;;;;;;;;;;;;;;3.94;38.19;100764.25;5072542;28;19916;-78
2022/01/25 06:58:49;;;;;;;;;;;;;;;4.82;38.01;100774.66;5047078;28;20002;-79
2022/01/25 07:01:14;;;;;;;;;;;;;;;4.50;37.27;100779.97;5063190;28;19923;-79
2022/01/25 07:03:40;;;;;;;;;;;;;;;4.88;37.38;100782.47;5065444;28;19916;-79
2022/01/25 07:06:11;;;;;;;;;;;;;;;4.74;35.99;100782.16;5065787;28;19916;-78
2022/01/25 07:08:37;;;;;;;;;;;;;;;4.88;37.24;100785.00;5068686;28;19921;-78
2022/01/25 07:11:02;;;;;;;;;;;;;;;4.96;37.10;100778.34;5066283;28;20289;-79
2022/01/25 07:13:31;;;;;;;;;;;;;;;4.62;37.17;100776.81;5065329;28;19979;-78
2022/01/25 07:15:56;;;;;;;;;;;;;;;4.00;39.28;100774.59;5063162;28;19920;-78
2022/01/25 07:18:27;;;;;;;;;;;;;;;4.38;39.47;100778.03;5064581;28;19950;-80
2022/01/25 07:20:53;;;;;;;;;;;;;;;4.02;38.59;100788.25;5064287;28;20374;-78
2022/01/25 07:23:21;;;;;;;;;;;;;;;4.53;38.85;100795.31;5063350;28;19921;-81
2022/01/25 07:25:47;;;;;;;;;;;;;;;3.95;39.62;100794.03;5062468;28;20016;-78
2022/01/25 07:28:12;;;;;;;;;;;;;;;3.95;39.33;100807.63;5046165;28;20010;-79
2022/01/25 07:30:38;;;;;;;;;;;;;;;4.09;37.99;100810.50;5064638;28;19977;-79
2022/01/25 07:33:07;;;;;;;;;;;;;;;4.55;37.99;100815.78;5063114;28;20397;-78
2022/01/25 07:35:36;;;;;;;;;;;;;;;4.52;36.88;100814.03;5062910;28;19909;-78
2022/01/25 07:38:01;;;;;;;;;;;;;;;4.06;37.25;100818.09;5063529;28;19921;-79
2022/01/25 07:40:26;;;;;;;;;;;;;;;4.68;37.71;100820.31;5063742;28;19924;-77
2022/01/25 07:42:55;;;;;;;;;;;;;;;4.37;37.74;100821.34;5062538;28;19978;-78
2022/01/25 07:45:21;;;;;;;;;;;;;;;4.66;36.62;100816.88;5049314;28;19916;-78
2022/01/25 07:47:53;;;;;;;;;;;;;;;3.76;39.86;100808.88;5047297;28;19925;-79
2022/01/25 07:50:18;;;;;;;;;;;;;;;4.01;39.95;100816.25;5064555;28;19958;-78
2022/01/25 07:52:46;;;;;;;;;;;;;;;4.18;40.12;100814.97;5063768;28;20392;-78
2022/01/25 07:55:12;;;;;;;;;;;;;;;4.30;37.70;100820.34;5067030;28;19920;-78
2022/01/25 07:57:40;;;;;;;;;;;;;;;3.78;41.80;100809.75;5066402;28;19916;-78
2022/01/25 08:00:09;;;;;;;;;;;;;;;4.02;40.90;100818.00;5066029;28;19992;-78
2022/01/25 08:02:38;;;;;;;;;;;;;;;4.33;38.26;100832.28;5065917;28;19916;-78
2022/01/25 08:05:03;;;;;;;;;;;;;;;4.13;39.33;100827.59;5049713;28;19952;-77
2022/01/25 08:07:31;;;;;;;;;;;;;;;3.76;39.81;100838.56;5065914;28;19935;-77
2022/01/25 08:09:59;;;;;;;;;;;;;;;3.80;41.28;100842.94;5065182;28;19916;-78
2022/01/25 08:12:25;;;;;;;;;;;;;;;4.01;38.96;100849.38;5060955;28;19919;-78
2022/01/25 08:14:51;;;;;;;;;;;;;;;4.16;37.28;100848.06;5065437;28;21140;-78
2022/01/25 08:17:17;;;;;;;;;;;;;;;4.59;36.68;100864.38;5065591;28;20405;-78
2022/01/25 08:19:44;;;;;;;;;;;;;;;4.82;36.54;100861.44;5049062;28;19928;-78
2022/01/25 08:22:09;;;;;;;;;;;;;;;4.52;34.48;100848.91;5046749;28;19947;-78
2022/01/25 08:24:35;;;;;;;;;;;;;;;4.13;36.61;100840.34;5064592;28;19917;-78
2022/01/25 08:27:00;;;;;;;;;;;;;;;4.07;37.01;100835.09;5060970;28;19924;-77
2022/01/25 08:29:35;;;;;;;;;;;;;;;3.82;37.24;100845.53;5049205;28;19917;-78
2022/01/25 08:32:07;;;;;;;;;;;;;;;4.67;36.40;100856.00;5047627;28;19920;-77
2022/01/25 08:34:33;;;;;;;;;;;;;;;4.96;35.10;100849.84;5065196;28;19962;-79
2022/01/25 08:36:58;;;;;;;;;;;;;;;4.61;35.68;100831.22;5062561;28;19916;-77
2022/01/25 08:39:26;;;;;;;;;;;;;;;4.82;36.18;100825.72;5064253;28;19920;-78
2022/01/25 08:41:52;;;;;;;;;;;;;;;4.68;36.63;100811.81;5065100;28;20432;-78
2022/01/25 08:44:17;;;;;;;;;;;;;;;4.82;35.41;100815.50;5048469;28;19955;-77
2022/01/25 08:46:42;;;;;;;;;;;;;;;5.07;35.10;100808.34;5064316;28;19920;-78
2022/01/25 08:49:08;;;;;;;;;;;;;;;4.06;36.69;100794.25;5046760;28;19916;-78
2022/01/25 08:51:33;;;;;;;;;;;;;;;4.29;36.79;100782.03;5063916;28;19920;-78
2022/01/25 08:53:59;;;;;;;;;;;;;;;3.96;39.31;100785.56;5046674;28;19922;-77
2022/01/25 08:56:24;;;;;;;;;;;;;;;3.84;41.09;100782.72;5046708;28;19942;-77
2022/01/25 08:58:49;;;;;;;;;;;;;;;4.50;37.84;100800.38;5046495;28;20008;-78
2022/01/25 09:01:15;;;;;;;;;;;;;;;4.40;37.74;100808.63;5060120;28;19920;-78
2022/01/25 09:03:40;;;;;;;;;;;;;;;4.16;38.30;100806.41;5046266;28;19924;-78
2022/01/25 09:06:05;;;;;;;;;;;;;;;3.77;41.41;100802.09;5060939;28;19912;-79
2022/01/25 09:08:31;;;;;;;;;;;;;;;4.48;36.95;100819.88;5062864;28;19970;-79
2022/01/25 09:10:59;;;;;;;;;;;;;;;4.85;35.73;100825.78;5063917;28;19920;-78
2022/01/25 09:13:25;;;;;;;;;;;;;;;4.24;38.36;100820.19;5063773;28;20262;-78
2022/01/25 09:15:50;;;;;;;;;;;;;;;4.17;37.93;100818.31;5065000;28;19933;-78
2022/01/25 09:18:16;;;;;;;;;;;;;;;4.17;36.69;100823.44;5062196;28;19924;-77
2022/01/25 09:20:41;;;;;;;;;;;;;;;4.63;37.97;100833.78;5063801;28;19927;-78
2022/01/25 09:23:06;;;;;;;;;;;;;;;4.89;36.18;100842.03;5045605;28;19944;-78
2022/01/25 09:25:32;;;;;;;;;;;;;;;4.29;36.09;100838.13;5049247;28;19920;-78
2022/01/25 09:27:58;;;;;;;;;;;;;;;4.87;34.76;100834.31;5066321;28;19927;-79
2022/01/25 09:30:23;;;;;;;;;;;;;;;5.13;34.89;100839.09;5050017;28;19922;-79
2022/01/25 09:32:48;;;;;;;;;;;;;;;4.03;37.39;100823.09;5049924;28;19943;-78
2022/01/25 09:35:14;;;;;;;;;;;;;;;3.62;38.98;100828.03;5049585;28;19917;-79
2022/01/25 09:37:39;;;;;;;;;;;;;;;4.15;38.76;100836.16;5048246;28;19920;-79
2022/01/25 09:40:05;;;;;;;;;;;;;;;3.67;40.20;100835.78;5068500;28;19920;-78
2022/01/25 09:42:31;;;;;;;;;;;;;;;4.22;40.85;100842.28;5033127;28;19927;-79
2022/01/25 09:44:56;;;;;;;;;;;;;;;3.93;41.37;100839.00;5066459;28;19999;-79
2022/01/25 09:47:22;;;;;;;;;;;;;;;3.55;39.40;100849.09;5065859;28;19982;-78
2022/01/25 09:49:47;;;;;;;;;;;;;;;3.73;41.93;100854.66;5049780;28;20305;-79
2022/01/25 09:52:12;;;;;;;;;;;;;;;4.81;38.32;100869.91;5070026;28;19993;-77
2022/01/25 09:54:38;;;;;;;;;;;;;;;4.88;34.72;100881.13;5066543;28;20007;-76
2022/01/25 09:57:04;;;;;;;;;;;;;;;4.53;35.00;100881.22;5047624;28;19912;-77
2022/01/25 09:59:29;;;;;;;;;;;;;;;4.54;36.79;100876.16;5054813;28;19921;-78
2022/01/25 10:01:55;;;;;;;;;;;;;;;4.45;35.41;100883.59;5070211;28;20345;-78
2022/01/25 10:04:30;;;;;;;;;;;;;;;4.73;35.50;100886.78;5075575;28;19923;-76
2022/01/25 10:06:59;;;;;;;;;;;;;;;3.51;37.11;100885.47;5075016;28;19917;-78
2022/01/25 10:09:26;;;;;;;;;;;;;;;3.97;39.10;100889.25;5061945;28;20004;-78
2022/01/25 10:11:51;;;;;;;;;;;;;;;3.89;39.32;100904.34;5073212;28;19912;-77
2022/01/25 10:14:17;;;;;;;;;;;;;;;4.41;36.08;100909.88;5071727;28;19913;-77
2022/01/25 10:16:43;;;;;;;;;;;;;;;3.93;36.45;100911.25;5057424;28;19920;-77
2022/01/25 10:19:13;;;;;;;;;;;;;;;4.44;36.85;100915.03;5074872;28;19916;-76
2022/01/25 10:21:39;;;;;;;;;;;;;;;4.37;36.15;100919.13;5067013;28;19912;-77
2022/01/25 10:24:08;;;;;;;;;;;;;;;3.77;40.19;100917.63;5073929;28;20341;-78
2022/01/25 10:26:34;;;;;;;;;;;;;;;3.48;38.82;100921.06;5069431;28;19916;-77
2022/01/25 10:29:00;;;;;;;;;;;;;;;4.04;39.22;100929.38;5063660;28;19913;-77
2022/01/25 10:31:32;;;;;;;;;;;;;;;3.82;38.52;100935.59;5071794;28;20472;-78
2022/01/25 10:33:57;;;;;;;;;;;;;;;3.93;38.97;100938.44;5071675;28;19927;-77
2022/01/25 10:36:23;;;;;;;;;;;;;;;4.14;37.34;100941.50;5069651;28;19912;-78
2022/01/25 10:38:49;;;;;;;;;;;;;;;4.53;35.03;100943.31;5049868;28;19920;-77
2022/01/25 10:41:19;;;;;;;;;;;;;;;4.30;35.86;100944.44;5067513;28;20266;-78
2022/01/25 10:43:45;;;;;;;;;;;;;;;3.80;37.40;100944.00;5072233;28;19912;-76
2022/01/25 10:46:12;;;;;;;;;;;;;;;3.71;37.79;100940.38;5069889;28;19973;-77
2022/01/25 10:48:38;;;;;;;;;;;;;;;3.53;41.31;100950.06;5061947;28;20327;-77
2022/01/25 10:51:08;;;;;;;;;;;;;;;4.28;37.48;100953.75;5072989;28;19995;-78
2022/01/25 10:53:34;;;;;;;;;;;;;;;4.17;35.36;100956.91;5053679;28;20469;-78
2022/01/25 10:56:00;;;;;;;;;;;;;;;3.97;36.10;100948.75;5067932;28;19912;-78
2022/01/25 10:58:27;;;;;;;;;;;;;;;4.22;36.74;100948.50;5073216;28;19962;-78
2022/01/25 11:00:52;;;;;;;;;;;;;;;4.26;34.65;100955.41;5053201;28;20024;-77
2022/01/25 11:03:26;;;;;;;;;;;;;;;4.23;33.88;100945.97;5056889;28;19943;-78
2022/01/25 11:05:51;;;;;;;;;;;;;;;3.98;32.62;100939.41;5072960;28;20413;-78
2022/01/25 11:08:18;;;;;;;;;;;;;;;4.24;35.30;100936.63;5073121;28;19967;-77
2022/01/25 11:10:48;;;;;;;;;;;;;;;4.51;34.24;100926.25;5073434;28;20374;-77
2022/01/25 11:13:33;;;;;;;;;;;;;;;4.22;33.40;100913.66;5079721;28;20400;-78
2022/01/25 11:15:59;;;;;;;;;;;;;;;4.42;32.86;100896.28;5080109;28;19967;-77
2022/01/25 11:18:25;;;;;;;;;;;;;;;3.97;33.58;100886.69;5066542;28;20650;-77
2022/01/25 11:20:52;;;;;;;;;;;;;;;4.49;33.16;100872.63;5072356;28;19917;-77
2022/01/25 11:23:18;;;;;;;;;;;;;;;4.59;33.07;100864.38;5054148;28;19913;-77
2022/01/25 11:25:43;;;;;;;;;;;;;;;4.07;35.08;100847.84;5056145;28;19919;-77
2022/01/25 11:28:09;;;;;;;;;;;;;;;3.96;35.67;100836.53;5075104;28;19920;-79
2022/01/25 11:30:37;;;;;;;;;;;;;;;4.55;35.16;100842.16;5073033;28;19962;-79
2022/01/25 11:33:02;;;;;;;;;;;;;;;4.16;34.67;100827.66;5072037;28;19924;-78
2022/01/25 11:35:28;;;;;;;;;;;;;;;3.82;35.27;100830.25;5069900;28;19912;-79
2022/01/25 11:37:53;;;;;;;;;;;;;;;4.53;33.45;100830.19;5070133;28;19919;-79
2022/01/25 11:40:26;;;;;;;;;;;;;;;4.87;34.43;100823.25;5070293;28;19923;-78
2022/01/25 11:42:53;;;;;;;;;;;;;;;4.18;32.62;100810.72;5067115;28;19928;-80
2022/01/25 11:45:20;;;;;;;;;;;;;;;4.25;33.77;100801.53;5069790;28;19909;-79
2022/01/25 11:47:49;;;;;;;;;;;;;;;4.31;35.23;100798.25;5064298;28;19924;-79
2022/01/25 11:50:14;;;;;;;;;;;;;;;4.34;34.42;100790.66;5066559;28;19921;-78
2022/01/25 11:52:48;;;;;;;;;;;;;;;4.31;34.89;100788.03;5069444;28;19916;-78
2022/01/25 11:55:24;;;;;;;;;;;;;;;4.51;34.29;100789.34;5065572;28;19913;-78
2022/01/25 11:57:57;;;;;;;;;;;;;;;4.49;35.50;100785.88;5072883;28;20211;-78
2022/01/25 12:00:49;;;;;;;;;;;;;;;5.28;33.49;100783.19;5071322;28;19938;-79
2022/01/25 12:03:33;;;;;;;;;;;;;;;5.41;34.45;100764.69;5057190;28;19916;-79
2022/01/25 12:06:06;;;;;;;;;;;;;;;5.55;34.50;100769.19;5053074;28;19919;-78
2022/01/25 12:09:41;;;;;;;;;;;;;;;4.13;37.36;100753.66;5059353;28;19916;-78
2022/01/25 12:11:24;;;;;;;;;;;;;;;4.76;34.41;100764.31;5053807;28;19947;-79
2022/01/25 12:14:09;;;;;;;;;;;;;;;5.17;36.27;100757.44;5054390;28;19913;-80
2022/01/25 12:16:37;;;;;;;;;;;;;;;4.99;37.01;100747.75;5062582;28;19916;-77
2022/01/25 12:19:05;;;;;;;;;;;;;;;4.78;37.02;100748.22;5069452;28;19920;-78
2022/01/25 12:21:46;;;;;;;;;;;;;;;4.39;37.87;100738.06;5068777;28;19919;-78
2022/01/25 12:24:19;;;;;;;;;;;;;;;4.82;37.89;100744.03;5090084;28;19912;-79
2022/01/25 12:27:00;;;;;;;;;;;;;;;4.62;38.06;100741.09;5073249;28;19920;-77
2022/01/25 12:29:35;;;;;;;;;;;;;;;4.61;37.75;100730.03;5070488;28;19997;-78
2022/01/25 12:32:16;;;;;;;;;;;;;;;4.41;38.47;100736.41;5073160;28;19912;-79
2022/01/25 12:35:08;;;;;;;;;;;;;;;4.98;36.98;100737.53;5064011;28;19913;-77
2022/01/25 12:37:43;;;;;;;;;;;;;;;5.54;36.01;100747.00;5071213;28;19938;-79
2022/01/25 12:40:28;;;;;;;;;;;;;;;5.53;36.06;100745.31;5072968;28;19901;-78
2022/01/25 12:43:01;;;;;;;;;;;;;;;5.48;36.63;100731.59;5073105;28;19913;-77
2022/01/25 12:45:27;;;;;;;;;;;;;;;5.38;36.38;100722.91;5072048;28;20425;-78
2022/01/25 12:47:54;;;;;;;;;;;;;;;5.33;37.93;100715.16;5055322;28;20456;-78
2022/01/25 12:50:19;;;;;;;;;;;;;;;5.45;36.91;100712.81;5067350;28;19912;-78
2022/01/25 12:52:45;;;;;;;;;;;;;;;5.42;37.13;100711.91;5051139;28;20007;-77
2022/01/25 12:55:11;;;;;;;;;;;;;;;5.15;37.47;100696.97;5064126;28;19912;-78
2022/01/25 13:00:43;;;;;;;;;;;;;;;4.78;37.65;100702.25;5074333;28;20082;-78
2022/01/25 13:03:37;;;;;;;;;;;;;;;4.76;37.58;100697.97;5073316;28;19923;-77
2022/01/25 13:06:26;;;;;;;;;;;;;;;4.03;39.34;100697.34;5059448;28;20119;-78
2022/01/25 13:09:45;;;;;;;;;;;;;;;4.73;37.29;100698.78;5072948;28;19916;-77
2022/01/25 13:12:24;;;;;;;;;;;;;;;4.92;34.92;100705.06;5065259;28;20765;-77
2022/01/25 13:15:26;;;;;;;;;;;;;;;3.86;38.94;100699.53;5058270;28;19913;-79
2022/01/25 13:21:02;;;;;;;;;;;;;;;5.29;33.50;100710.84;5073415;28;20352;-78
2022/01/25 13:23:28;;;;;;;;;;;;;;;5.28;34.10;100704.00;5067889;28;19917;-78
2022/01/25 13:26:15;;;;;;;;;;;;;;;5.56;34.14;100707.88;5066052;28;20002;-79
2022/01/25 13:28:54;;;;;;;;;;;;;;;4.87;35.71;100706.69;5068024;28;20410;-79
2022/01/25 13:31:20;;;;;;;;;;;;;;;4.88;36.06;100700.75;5065156;28;20007;-77
2022/01/25 13:33:46;;;;;;;;;;;;;;;4.85;34.83;100707.50;5075867;28;19913;-79
2022/01/25 13:36:22;;;;;;;;;;;;;;;4.75;34.82;100702.22;5067936;28;20002;-80
2022/01/25 13:38:49;;;;;;;;;;;;;;;4.76;35.27;100692.84;5039480;28;20000;-79
2022/01/25 13:41:30;;;;;;;;;;;;;;;5.40;35.43;100699.09;5069524;28;20301;-78
2022/01/25 13:46:27;;;;;;;;;;;;;;;4.25;38.89;100691.88;5075552;28;20374;-80
2022/01/25 13:48:56;;;;;;;;;;;;;;;4.47;38.01;100680.41;5066040;28;20317;-78
2022/01/25 13:51:22;;;;;;;;;;;;;;;5.27;36.29;100686.09;5054822;28;19920;-79
2022/01/25 13:53:58;;;;;;;;;;;;;;;5.30;36.13;100689.56;5074207;28;19916;-79
2022/01/25 13:56:25;;;;;;;;;;;;;;;4.98;36.74;100678.81;5071351;28;19913;-78
2022/01/25 13:58:50;;;;;;;;;;;;;;;4.82;36.55;100682.78;5050806;28;19999;-80
2022/01/25 14:01:18;;;;;;;;;;;;;;;4.90;36.68;100673.53;5069394;28;19916;-79
2022/01/25 14:03:53;;;;;;;;;;;;;;;5.07;36.85;100675.56;5056388;28;19976;-78
2022/01/25 14:06:28;;;;;;;;;;;;;;;5.53;35.92;100676.31;5066247;28;19916;-78
2022/01/25 14:08:59;;;;;;;;;;;;;;;5.83;36.46;100676.75;5065092;28;19921;-79
2022/01/25 14:21:36;;;;;;;;;;;;;;;5.64;37.22;100672.22;5052063;28;20030;-79
2022/01/25 14:25:25;;;;;;;;;;;;;;;5.56;37.92;100663.56;5070483;28;19920;-79
2022/01/25 14:27:53;;;;;;;;;;;;;;;5.78;37.25;100663.03;5072565;28;19955;-80
2022/01/25 14:30:19;;;;;;;;;;;;;;;5.54;37.79;100655.91;5071879;28;20502;-78
2022/01/25 14:32:47;;;;;;;;;;;;;;;5.41;37.69;100659.94;5069974;28;19913;-79
2022/01/25 14:35:12;;;;;;;;;;;;;;;5.51;37.67;100660.09;5056512;28;20000;-78
2022/01/25 14:37:45;;;;;;;;;;;;;;;5.60;37.05;100650.84;5072020;28;20353;-77
2022/01/25 14:40:11;;;;;;;;;;;;;;;5.19;39.35;100663.00;5061131;28;19923;-80
2022/01/25 14:42:39;;;;;;;;;;;;;;;5.44;38.36;100665.09;5069179;28;20014;-77
2022/01/25 14:45:06;;;;;;;;;;;;;;;5.42;38.20;100661.66;5052665;28;20019;-80
2022/01/25 14:47:38;;;;;;;;;;;;;;;5.34;37.90;100663.25;5056240;28;19917;-79
2022/01/25 14:50:14;;;;;;;;;;;;;;;4.61;39.65;100657.72;5068996;28;19912;-79
2022/01/25 14:52:39;;;;;;;;;;;;;;;4.78;37.26;100656.31;5069183;28;19916;-78
2022/01/25 14:55:17;;;;;;;;;;;;;;;4.85;37.36;100672.59;5071953;28;19943;-81
2022/01/25 14:58:00;;;;;;;;;;;;;;;4.94;36.45;100672.78;5068168;28;20318;-79
2022/01/25 15:00:26;;;;;;;;;;;;;;;5.54;34.59;100691.69;5070656;28;19916;-80
2022/01/25 15:02:51;;;;;;;;;;;;;;;5.64;34.81;100692.66;5053591;28;20009;-80